Terminal Aerodrome Forecast
Issued by NWS Shreveport, LA

Home | Current Version | Previous Version | Text Only | Print | Product List | Glossary On
Versions: 1 2 3 4 5 6 7 8 9 10 11 12 13 14 15 16 17 18 19
000
FTUS44 KSHV 260546
TAFMLU
TAF
KMLU 260546Z 2606/2706 VRB06KT 4SM RA BR FEW060 OVC080
     FM260800 17008KT 5SM -SHRA OVC025
      TEMPO 2608/2612 16013G25KT BKN015
     FM261200 16008KT 5SM BR OVC015
     FM261500 19008KT P6SM OVC100
     FM261800 22010KT P6SM SCT035=

USA.gov is the U.S. government's official web portal to all federal, state and local government web resources and services.